sensor_id;sensor_type;location;lat;lon;timestamp;temperature;humidity
1476;DHT22;730;48.870;12.542;2023-02-28T00:01:23;-0.20;1.00
1476;DHT22;730;48.870;12.542;2023-02-28T00:03:50;-0.30;1.00
1476;DHT22;730;48.870;12.542;2023-02-28T00:06:17;-0.30;1.00
1476;DHT22;730;48.870;12.542;2023-02-28T00:08:43;-0.30;1.00
1476;DHT22;730;48.870;12.542;2023-02-28T00:11:12;-0.30;1.00
1476;DHT22;730;48.870;12.542;2023-02-28T00:13:43;-0.20;1.00
1476;DHT22;730;48.870;12.542;2023-02-28T00:16:14;-0.20;1.00
1476;DHT22;730;48.870;12.542;2023-02-28T00:18:41;-0.20;1.00
1476;DHT22;730;48.870;12.542;2023-02-28T00:21:07;-0.20;1.00
1476;DHT22;730;48.870;12.542;2023-02-28T00:23:34;-0.30;1.00
1476;DHT22;730;48.870;12.542;2023-02-28T00:26:01;-0.20;1.00
1476;DHT22;730;48.870;12.542;2023-02-28T00:28:27;-0.10;1.00
1476;DHT22;730;48.870;12.542;2023-02-28T00:30:53;-0.10;1.00
1476;DHT22;730;48.870;12.542;2023-02-28T00:33:19;-0.10;1.00
1476;DHT22;730;48.870;12.542;2023-02-28T00:35:45;-0.20;1.00
1476;DHT22;730;48.870;12.542;2023-02-28T00:38:13;-0.20;1.00
1476;DHT22;730;48.870;12.542;2023-02-28T00:40:40;-0.30;1.00
1476;DHT22;730;48.870;12.542;2023-02-28T00:43:06;-0.20;1.00
1476;DHT22;730;48.870;12.542;2023-02-28T00:45:32;-0.30;1.00
1476;DHT22;730;48.870;12.542;2023-02-28T00:47:58;-0.40;1.00
1476;DHT22;730;48.870;12.542;2023-02-28T00:50:24;-0.30;1.00
1476;DHT22;730;48.870;12.542;2023-02-28T00:52:50;-0.30;1.00
1476;DHT22;730;48.870;12.542;2023-02-28T00:55:16;-0.40;1.00
1476;DHT22;730;48.870;12.542;2023-02-28T00:57:42;-0.40;1.00
1476;DHT22;730;48.870;12.542;2023-02-28T01:00:08;-0.40;1.00
1476;DHT22;730;48.870;12.542;2023-02-28T01:02:35;-0.40;1.00
1476;DHT22;730;48.870;12.542;2023-02-28T01:05:01;-0.40;1.00
1476;DHT22;730;48.870;12.542;2023-02-28T01:07:27;-0.50;1.00
1476;DHT22;730;48.870;12.542;2023-02-28T01:09:53;-0.50;1.00
1476;DHT22;730;48.870;12.542;2023-02-28T01:12:19;-0.60;1.00
1476;DHT22;730;48.870;12.542;2023-02-28T01:14:45;-0.70;1.00
1476;DHT22;730;48.870;12.542;2023-02-28T01:17:11;-0.80;1.00
1476;DHT22;730;48.870;12.542;2023-02-28T01:19:37;-0.90;1.00
1476;DHT22;730;48.870;12.542;2023-02-28T01:22:04;-0.90;1.00
1476;DHT22;730;48.870;12.542;2023-02-28T01:24:31;-1.00;1.00
1476;DHT22;730;48.870;12.542;2023-02-28T01:26:57;-1.00;1.00
1476;DHT22;730;48.870;12.542;2023-02-28T01:29:23;-1.00;1.00
1476;DHT22;730;48.870;12.542;2023-02-28T01:31:49;-1.00;1.00
1476;DHT22;730;48.870;12.542;2023-02-28T01:34:16;-1.00;1.00
1476;DHT22;730;48.870;12.542;2023-02-28T01:36:45;-1.10;1.00
1476;DHT22;730;48.870;12.542;2023-02-28T01:39:11;-1.10;1.00
1476;DHT22;730;48.870;12.542;2023-02-28T01:41:39;-1.00;1.00
1476;DHT22;730;48.870;12.542;2023-02-28T01:46:51;-1.00;1.00
1476;DHT22;730;48.870;12.542;2023-02-28T01:49:27;-1.00;1.00
1476;DHT22;730;48.870;12.542;2023-02-28T01:51:55;-0.90;1.00
1476;DHT22;730;48.870;12.542;2023-02-28T01:54:30;-1.00;1.00
1476;DHT22;730;48.870;12.542;2023-02-28T01:57:18;-0.90;1.00
1476;DHT22;730;48.870;12.542;2023-02-28T02:00:00;-0.90;1.00
1476;DHT22;730;48.870;12.542;2023-02-28T02:02:28;-0.90;1.00
1476;DHT22;730;48.870;12.542;2023-02-28T02:04:58;-0.90;1.00
1476;DHT22;730;48.870;12.542;2023-02-28T02:07:31;-0.90;1.00
1476;DHT22;730;48.870;12.542;2023-02-28T02:10:11;-0.90;1.00
1476;DHT22;730;48.870;12.542;2023-02-28T02:18:46;-1.00;1.00
1476;DHT22;730;48.870;12.542;2023-02-28T02:26:43;-0.90;1.00
1476;DHT22;730;48.870;12.542;2023-02-28T02:35:31;-1.00;1.00
1476;DHT22;730;48.870;12.542;2023-02-28T02:41:03;-1.00;1.00
1476;DHT22;730;48.870;12.542;2023-02-28T02:43:36;-1.10;1.00
1476;DHT22;730;48.870;12.542;2023-02-28T02:46:10;-1.00;1.00
1476;DHT22;730;48.870;12.542;2023-02-28T02:48:39;-1.00;1.00
1476;DHT22;730;48.870;12.542;2023-02-28T02:51:11;-1.00;1.00
1476;DHT22;730;48.870;12.542;2023-02-28T02:53:45;-1.00;1.00
1476;DHT22;730;48.870;12.542;2023-02-28T02:56:13;-1.00;1.00
1476;DHT22;730;48.870;12.542;2023-02-28T02:58:42;-0.90;1.00
1476;DHT22;730;48.870;12.542;2023-02-28T03:01:14;-1.00;1.00
1476;DHT22;730;48.870;12.542;2023-02-28T03:03:42;-1.00;1.00
1476;DHT22;730;48.870;12.542;2023-02-28T03:06:09;-1.00;1.00
1476;DHT22;730;48.870;12.542;2023-02-28T03:08:37;-1.00;1.00
1476;DHT22;730;48.870;12.542;2023-02-28T03:11:06;-0.90;1.00
1476;DHT22;730;48.870;12.542;2023-02-28T03:13:50;-0.90;1.00
1476;DHT22;730;48.870;12.542;2023-02-28T03:28:08;-1.10;1.00
1476;DHT22;730;48.870;12.542;2023-02-28T03:30:45;-1.10;1.00
1476;DHT22;730;48.870;12.542;2023-02-28T03:33:37;-1.00;1.00
1476;DHT22;730;48.870;12.542;2023-02-28T03:36:17;-1.10;1.00
1476;DHT22;730;48.870;12.542;2023-02-28T03:38:58;-1.10;1.00
1476;DHT22;730;48.870;12.542;2023-02-28T03:41:49;-1.10;1.00
1476;DHT22;730;48.870;12.542;2023-02-28T03:44:21;-1.10;1.00
1476;DHT22;730;48.870;12.542;2023-02-28T03:46:54;-1.10;1.00
1476;DHT22;730;48.870;12.542;2023-02-28T03:49:27;-1.10;1.00
1476;DHT22;730;48.870;12.542;2023-02-28T03:51:58;-1.10;1.00
1476;DHT22;730;48.870;12.542;2023-02-28T03:54:33;-1.00;1.00
1476;DHT22;730;48.870;12.542;2023-02-28T04:00:06;-1.10;1.00
1476;DHT22;730;48.870;12.542;2023-02-28T04:02:38;-1.10;1.00
1476;DHT22;730;48.870;12.542;2023-02-28T04:05:06;-1.10;1.00
1476;DHT22;730;48.870;12.542;2023-02-28T04:07:33;-1.10;1.00
1476;DHT22;730;48.870;12.542;2023-02-28T04:09:59;-1.00;1.00
1476;DHT22;730;48.870;12.542;2023-02-28T04:12:25;-1.10;1.00
1476;DHT22;730;48.870;12.542;2023-02-28T04:14:51;-1.10;1.00
1476;DHT22;730;48.870;12.542;2023-02-28T04:17:17;-1.20;1.00
1476;DHT22;730;48.870;12.542;2023-02-28T04:19:44;-1.10;1.00
1476;DHT22;730;48.870;12.542;2023-02-28T04:22:10;-1.20;1.00
1476;DHT22;730;48.870;12.542;2023-02-28T04:24:36;-1.20;1.00
1476;DHT22;730;48.870;12.542;2023-02-28T04:27:02;-1.40;1.00
1476;DHT22;730;48.870;12.542;2023-02-28T04:29:30;-1.30;1.00
1476;DHT22;730;48.870;12.542;2023-02-28T04:31:59;-1.30;1.00
1476;DHT22;730;48.870;12.542;2023-02-28T04:34:27;-1.30;1.00
1476;DHT22;730;48.870;12.542;2023-02-28T04:36:54;-1.30;1.00
1476;DHT22;730;48.870;12.542;2023-02-28T04:39:22;-1.30;1.00
1476;DHT22;730;48.870;12.542;2023-02-28T04:41:48;-1.20;1.00
1476;DHT22;730;48.870;12.542;2023-02-28T04:44:15;-1.20;1.00
1476;DHT22;730;48.870;12.542;2023-02-28T04:46:41;-1.10;1.00
1476;DHT22;730;48.870;12.542;2023-02-28T04:49:10;-1.20;1.00
1476;DHT22;730;48.870;12.542;2023-02-28T04:51:37;-1.20;1.00
1476;DHT22;730;48.870;12.542;2023-02-28T04:54:03;-1.30;1.00
1476;DHT22;730;48.870;12.542;2023-02-28T04:56:30;-1.30;1.00
1476;DHT22;730;48.870;12.542;2023-02-28T04:58:56;-1.20;1.00
1476;DHT22;730;48.870;12.542;2023-02-28T05:01:26;-1.20;1.00
1476;DHT22;730;48.870;12.542;2023-02-28T05:03:54;-1.20;1.00
1476;DHT22;730;48.870;12.542;2023-02-28T05:06:22;-1.20;1.00
1476;DHT22;730;48.870;12.542;2023-02-28T05:08:49;-1.20;1.00
1476;DHT22;730;48.870;12.542;2023-02-28T05:11:38;-1.20;1.00
1476;DHT22;730;48.870;12.542;2023-02-28T05:14:09;-1.20;1.00
1476;DHT22;730;48.870;12.542;2023-02-28T05:16:35;-1.20;1.00
1476;DHT22;730;48.870;12.542;2023-02-28T05:19:02;-1.20;1.00
1476;DHT22;730;48.870;12.542;2023-02-28T05:21:36;-1.20;1.00
1476;DHT22;730;48.870;12.542;2023-02-28T05:24:05;-1.10;1.00
1476;DHT22;730;48.870;12.542;2023-02-28T05:26:34;-1.10;1.00
1476;DHT22;730;48.870;12.542;2023-02-28T05:29:00;-1.00;1.00
1476;DHT22;730;48.870;12.542;2023-02-28T05:31:27;-1.00;1.00
1476;DHT22;730;48.870;12.542;2023-02-28T05:33:53;-1.00;1.00
1476;DHT22;730;48.870;12.542;2023-02-28T05:36:19;-1.00;1.00
1476;DHT22;730;48.870;12.542;2023-02-28T05:38:47;-1.10;1.00
1476;DHT22;730;48.870;12.542;2023-02-28T05:41:14;-1.10;1.00
1476;DHT22;730;48.870;12.542;2023-02-28T05:43:40;-1.10;1.00
1476;DHT22;730;48.870;12.542;2023-02-28T05:46:08;-1.10;1.00
1476;DHT22;730;48.870;12.542;2023-02-28T05:48:35;-1.00;1.00
1476;DHT22;730;48.870;12.542;2023-02-28T05:51:04;-1.00;1.00
1476;DHT22;730;48.870;12.542;2023-02-28T05:53:30;-1.00;1.00
1476;DHT22;730;48.870;12.542;2023-02-28T05:55:56;-1.10;1.00
1476;DHT22;730;48.870;12.542;2023-02-28T05:58:23;-1.10;1.00
1476;DHT22;730;48.870;12.542;2023-02-28T06:00:51;-1.10;1.00
1476;DHT22;730;48.870;12.542;2023-02-28T06:03:17;-1.00;1.00
1476;DHT22;730;48.870;12.542;2023-02-28T06:05:43;-1.00;1.00
1476;DHT22;730;48.870;12.542;2023-02-28T06:08:09;-1.00;1.00
1476;DHT22;730;48.870;12.542;2023-02-28T06:10:35;-1.00;1.00
1476;DHT22;730;48.870;12.542;2023-02-28T06:13:05;-1.00;1.00
1476;DHT22;730;48.870;12.542;2023-02-28T06:15:31;-1.00;1.00
1476;DHT22;730;48.870;12.542;2023-02-28T06:17:57;-1.00;1.00
1476;DHT22;730;48.870;12.542;2023-02-28T06:20:25;-1.00;1.00
1476;DHT22;730;48.870;12.542;2023-02-28T06:22:51;-0.90;1.00
1476;DHT22;730;48.870;12.542;2023-02-28T06:25:20;-0.80;1.00
1476;DHT22;730;48.870;12.542;2023-02-28T06:27:46;-0.80;1.00
1476;DHT22;730;48.870;12.542;2023-02-28T06:30:12;-0.80;1.00
1476;DHT22;730;48.870;12.542;2023-02-28T06:32:38;-0.70;1.00
1476;DHT22;730;48.870;12.542;2023-02-28T06:35:09;-0.60;1.00
1476;DHT22;730;48.870;12.542;2023-02-28T06:37:36;-0.40;1.00
1476;DHT22;730;48.870;12.542;2023-02-28T06:40:02;-0.30;1.00
1476;DHT22;730;48.870;12.542;2023-02-28T06:42:29;-0.10;1.00
1476;DHT22;730;48.870;12.542;2023-02-28T06:44:56;-0.10;1.00
1476;DHT22;730;48.870;12.542;2023-02-28T06:47:23;0.10;1.00
1476;DHT22;730;48.870;12.542;2023-02-28T06:49:49;0.30;1.00
1476;DHT22;730;48.870;12.542;2023-02-28T06:52:15;0.50;1.00
1476;DHT22;730;48.870;12.542;2023-02-28T06:54:41;0.70;1.00
1476;DHT22;730;48.870;12.542;2023-02-28T06:57:07;0.90;1.00
1476;DHT22;730;48.870;12.542;2023-02-28T06:59:34;1.10;1.00
1476;DHT22;730;48.870;12.542;2023-02-28T07:02:01;1.30;1.00
1476;DHT22;730;48.870;12.542;2023-02-28T07:04:28;1.40;1.00
1476;DHT22;730;48.870;12.542;2023-02-28T07:06:55;1.70;1.00
1476;DHT22;730;48.870;12.542;2023-02-28T07:09:23;2.20;1.00
1476;DHT22;730;48.870;12.542;2023-02-28T07:11:49;2.50;1.00
1476;DHT22;730;48.870;12.542;2023-02-28T07:14:15;2.80;1.00
1476;DHT22;730;48.870;12.542;2023-02-28T07:16:41;3.10;1.00
1476;DHT22;730;48.870;12.542;2023-02-28T07:19:07;3.30;1.00
1476;DHT22;730;48.870;12.542;2023-02-28T07:21:33;3.50;1.00
1476;DHT22;730;48.870;12.542;2023-02-28T07:23:59;3.50;1.00
1476;DHT22;730;48.870;12.542;2023-02-28T07:26:25;3.40;1.00
1476;DHT22;730;48.870;12.542;2023-02-28T07:28:51;3.50;1.00
1476;DHT22;730;48.870;12.542;2023-02-28T07:31:17;3.60;1.00
1476;DHT22;730;48.870;12.542;2023-02-28T07:33:44;3.80;1.00
1476;DHT22;730;48.870;12.542;2023-02-28T07:36:14;4.00;1.00
1476;DHT22;730;48.870;12.542;2023-02-28T07:38:47;4.30;1.00
1476;DHT22;730;48.870;12.542;2023-02-28T07:41:16;4.50;1.00
1476;DHT22;730;48.870;12.542;2023-02-28T07:43:43;4.70;1.00
1476;DHT22;730;48.870;12.542;2023-02-28T07:46:13;5.00;1.00
1476;DHT22;730;48.870;12.542;2023-02-28T07:48:43;5.20;1.00
1476;DHT22;730;48.870;12.542;2023-02-28T07:51:09;5.50;1.00
1476;DHT22;730;48.870;12.542;2023-02-28T07:53:35;5.70;1.00
1476;DHT22;730;48.870;12.542;2023-02-28T07:56:02;6.00;1.00
1476;DHT22;730;48.870;12.542;2023-02-28T07:58:30;6.30;1.00
1476;DHT22;730;48.870;12.542;2023-02-28T08:00:57;6.40;1.00
1476;DHT22;730;48.870;12.542;2023-02-28T08:03:24;6.60;1.00
1476;DHT22;730;48.870;12.542;2023-02-28T08:05:50;6.70;1.00
1476;DHT22;730;48.870;12.542;2023-02-28T08:08:18;6.80;1.00
1476;DHT22;730;48.870;12.542;2023-02-28T08:10:44;7.10;1.00
1476;DHT22;730;48.870;12.542;2023-02-28T08:13:10;7.30;1.00
1476;DHT22;730;48.870;12.542;2023-02-28T08:15:36;7.50;1.00
1476;DHT22;730;48.870;12.542;2023-02-28T08:18:02;7.70;1.00
1476;DHT22;730;48.870;12.542;2023-02-28T08:20:29;7.90;1.00
1476;DHT22;730;48.870;12.542;2023-02-28T08:22:55;8.00;1.00
1476;DHT22;730;48.870;12.542;2023-02-28T08:25:21;8.00;1.00
1476;DHT22;730;48.870;12.542;2023-02-28T08:27:47;8.10;1.00
1476;DHT22;730;48.870;12.542;2023-02-28T08:30:14;7.90;1.00
1476;DHT22;730;48.870;12.542;2023-02-28T08:32:40;7.90;1.00
1476;DHT22;730;48.870;12.542;2023-02-28T08:35:07;8.00;1.00
1476;DHT22;730;48.870;12.542;2023-02-28T08:37:35;8.20;1.00
1476;DHT22;730;48.870;12.542;2023-02-28T08:40:01;8.50;1.00
1476;DHT22;730;48.870;12.542;2023-02-28T08:42:29;8.80;1.00
1476;DHT22;730;48.870;12.542;2023-02-28T08:44:55;8.80;1.00
1476;DHT22;730;48.870;12.542;2023-02-28T08:47:22;8.80;1.00
1476;DHT22;730;48.870;12.542;2023-02-28T08:49:48;8.80;1.00
1476;DHT22;730;48.870;12.542;2023-02-28T08:52:14;9.00;1.00
1476;DHT22;730;48.870;12.542;2023-02-28T08:54:40;9.20;1.00
1476;DHT22;730;48.870;12.542;2023-02-28T08:57:07;9.50;1.00
1476;DHT22;730;48.870;12.542;2023-02-28T08:59:33;9.70;1.00
1476;DHT22;730;48.870;12.542;2023-02-28T09:01:59;9.90;1.00
1476;DHT22;730;48.870;12.542;2023-02-28T09:04:25;10.00;1.00
1476;DHT22;730;48.870;12.542;2023-02-28T09:06:51;10.20;1.00
1476;DHT22;730;48.870;12.542;2023-02-28T09:09:17;10.00;1.00
1476;DHT22;730;48.870;12.542;2023-02-28T09:11:43;10.00;1.00
1476;DHT22;730;48.870;12.542;2023-02-28T09:14:13;10.00;1.00
1476;DHT22;730;48.870;12.542;2023-02-28T09:16:39;10.20;1.00
1476;DHT22;730;48.870;12.542;2023-02-28T09:19:05;10.40;1.00
1476;DHT22;730;48.870;12.542;2023-02-28T09:21:31;10.60;1.00
1476;DHT22;730;48.870;12.542;2023-02-28T09:23:57;10.70;1.00
1476;DHT22;730;48.870;12.542;2023-02-28T09:26:26;10.80;1.00
1476;DHT22;730;48.870;12.542;2023-02-28T09:28:53;10.90;1.00
1476;DHT22;730;48.870;12.542;2023-02-28T09:31:25;11.00;1.00
1476;DHT22;730;48.870;12.542;2023-02-28T09:33:53;10.90;1.00
1476;DHT22;730;48.870;12.542;2023-02-28T09:36:20;10.90;1.00
1476;DHT22;730;48.870;12.542;2023-02-28T09:38:46;10.90;1.00
1476;DHT22;730;48.870;12.542;2023-02-28T09:41:15;10.60;1.00
1476;DHT22;730;48.870;12.542;2023-02-28T09:43:49;10.20;1.00
1476;DHT22;730;48.870;12.542;2023-02-28T09:46:32;10.10;1.00
1476;DHT22;730;48.870;12.542;2023-02-28T09:49:03;9.90;1.00
1476;DHT22;730;48.870;12.542;2023-02-28T09:51:45;9.60;1.00
1476;DHT22;730;48.870;12.542;2023-02-28T09:54:20;9.30;1.00
1476;DHT22;730;48.870;12.542;2023-02-28T09:56:59;9.10;1.00
1476;DHT22;730;48.870;12.542;2023-02-28T10:05:02;8.90;1.00
1476;DHT22;730;48.870;12.542;2023-02-28T10:10:30;8.80;1.00
1476;DHT22;730;48.870;12.542;2023-02-28T10:13:00;8.60;1.00
1476;DHT22;730;48.870;12.542;2023-02-28T10:15:30;8.50;1.00
1476;DHT22;730;48.870;12.542;2023-02-28T10:18:00;8.50;1.00
1476;DHT22;730;48.870;12.542;2023-02-28T10:20:28;8.60;1.00
1476;DHT22;730;48.870;12.542;2023-02-28T10:23:10;8.60;1.00
1476;DHT22;730;48.870;12.542;2023-02-28T10:25:38;8.60;1.00
1476;DHT22;730;48.870;12.542;2023-02-28T10:30:34;8.60;1.00
1476;DHT22;730;48.870;12.542;2023-02-28T10:33:00;8.70;1.00
1476;DHT22;730;48.870;12.542;2023-02-28T10:35:27;8.80;1.00
1476;DHT22;730;48.870;12.542;2023-02-28T10:37:58;8.70;1.00
1476;DHT22;730;48.870;12.542;2023-02-28T10:45:32;8.60;1.00
1476;DHT22;730;48.870;12.542;2023-02-28T10:48:30;8.60;1.00
1476;DHT22;730;48.870;12.542;2023-02-28T10:50:56;8.60;1.00
1476;DHT22;730;48.870;12.542;2023-02-28T10:58:50;8.70;1.00
1476;DHT22;730;48.870;12.542;2023-02-28T11:03:50;8.70;1.00
1476;DHT22;730;48.870;12.542;2023-02-28T11:06:19;8.90;1.00
1476;DHT22;730;48.870;12.542;2023-02-28T11:08:52;9.00;1.00
1476;DHT22;730;48.870;12.542;2023-02-28T11:11:20;9.10;1.00
1476;DHT22;730;48.870;12.542;2023-02-28T11:13:50;9.10;1.00
1476;DHT22;730;48.870;12.542;2023-02-28T11:16:17;9.10;1.00
1476;DHT22;730;48.870;12.542;2023-02-28T11:18:50;9.20;1.00
1476;DHT22;730;48.870;12.542;2023-02-28T11:23:49;9.30;1.00
1476;DHT22;730;48.870;12.542;2023-02-28T11:26:39;9.40;1.00
1476;DHT22;730;48.870;12.542;2023-02-28T11:29:32;9.40;1.00
1476;DHT22;730;48.870;12.542;2023-02-28T11:32:12;9.40;1.00
1476;DHT22;730;48.870;12.542;2023-02-28T11:34:40;9.50;1.00
1476;DHT22;730;48.870;12.542;2023-02-28T11:37:16;9.50;1.00
1476;DHT22;730;48.870;12.542;2023-02-28T11:39:43;9.60;1.00
1476;DHT22;730;48.870;12.542;2023-02-28T11:42:24;9.60;1.00
1476;DHT22;730;48.870;12.542;2023-02-28T11:45:04;9.80;1.00
1476;DHT22;730;48.870;12.542;2023-02-28T11:47:44;9.90;1.00
1476;DHT22;730;48.870;12.542;2023-02-28T11:50:38;9.90;1.00
1476;DHT22;730;48.870;12.542;2023-02-28T11:56:09;10.00;1.00
1476;DHT22;730;48.870;12.542;2023-02-28T12:04:38;10.20;1.00
1476;DHT22;730;48.870;12.542;2023-02-28T12:07:21;10.20;1.00
1476;DHT22;730;48.870;12.542;2023-02-28T12:15:54;10.20;1.00
1476;DHT22;730;48.870;12.542;2023-02-28T12:21:46;10.00;1.00
1476;DHT22;730;48.870;12.542;2023-02-28T12:24:21;9.80;1.00
1476;DHT22;730;48.870;12.542;2023-02-28T12:26:52;9.70;1.00
1476;DHT22;730;48.870;12.542;2023-02-28T12:29:34;9.80;1.00
1476;DHT22;730;48.870;12.542;2023-02-28T12:32:12;9.90;1.00
1476;DHT22;730;48.870;12.542;2023-02-28T12:34:52;10.10;1.00
1476;DHT22;730;48.870;12.542;2023-02-28T12:37:37;10.10;1.00
1476;DHT22;730;48.870;12.542;2023-02-28T12:42:43;10.30;1.00
1476;DHT22;730;48.870;12.542;2023-02-28T12:45:26;10.30;1.00
1476;DHT22;730;48.870;12.542;2023-02-28T12:48:00;10.40;1.00
1476;DHT22;730;48.870;12.542;2023-02-28T12:50:29;10.60;1.00
1476;DHT22;730;48.870;12.542;2023-02-28T12:53:02;10.70;1.00
1476;DHT22;730;48.870;12.542;2023-02-28T12:55:48;10.80;1.00
1476;DHT22;730;48.870;12.542;2023-02-28T12:58:45;11.00;1.00
1476;DHT22;730;48.870;12.542;2023-02-28T13:01:43;11.10;1.00
1476;DHT22;730;48.870;12.542;2023-02-28T13:04:46;11.30;1.00
1476;DHT22;730;48.870;12.542;2023-02-28T13:07:36;11.50;1.00
1476;DHT22;730;48.870;12.542;2023-02-28T13:10:07;11.50;1.00
1476;DHT22;730;48.870;12.542;2023-02-28T13:12:34;11.60;1.00
1476;DHT22;730;48.870;12.542;2023-02-28T13:15:17;11.80;1.00
1476;DHT22;730;48.870;12.542;2023-02-28T13:17:54;11.70;1.00
1476;DHT22;730;48.870;12.542;2023-02-28T13:20:24;11.70;1.00
1476;DHT22;730;48.870;12.542;2023-02-28T13:22:54;11.80;1.00
1476;DHT22;730;48.870;12.542;2023-02-28T13:25:50;11.80;1.00
1476;DHT22;730;48.870;12.542;2023-02-28T13:31:19;12.00;1.00
1476;DHT22;730;48.870;12.542;2023-02-28T13:38:46;12.60;1.00
1476;DHT22;730;48.870;12.542;2023-02-28T13:44:15;13.00;1.00
1476;DHT22;730;48.870;12.542;2023-02-28T14:04:59;14.00;1.00
1476;DHT22;730;48.870;12.542;2023-02-28T14:07:33;14.20;1.00
1476;DHT22;730;48.870;12.542;2023-02-28T14:10:06;14.30;1.00
1476;DHT22;730;48.870;12.542;2023-02-28T14:12:58;14.40;1.00
1476;DHT22;730;48.870;12.542;2023-02-28T14:15:48;14.50;1.00
1476;DHT22;730;48.870;12.542;2023-02-28T14:20:47;14.40;1.00
1476;DHT22;730;48.870;12.542;2023-02-28T14:26:16;14.00;1.00
1476;DHT22;730;48.870;12.542;2023-02-28T14:31:46;13.20;1.00
1476;DHT22;730;48.870;12.542;2023-02-28T14:37:15;12.30;1.00
1476;DHT22;730;48.870;12.542;2023-02-28T14:39:43;12.10;1.00
1476;DHT22;730;48.870;12.542;2023-02-28T14:45:01;11.80;1.00
1476;DHT22;730;48.870;12.542;2023-02-28T14:47:36;11.70;1.00
1476;DHT22;730;48.870;12.542;2023-02-28T14:50:04;11.60;1.00
1476;DHT22;730;48.870;12.542;2023-02-28T14:52:32;11.50;1.00
1476;DHT22;730;48.870;12.542;2023-02-28T14:55:15;11.30;1.00
1476;DHT22;730;48.870;12.542;2023-02-28T14:57:51;11.10;1.00
1476;DHT22;730;48.870;12.542;2023-02-28T15:00:35;10.90;1.00
1476;DHT22;730;48.870;12.542;2023-02-28T15:03:39;10.80;1.00
1476;DHT22;730;48.870;12.542;2023-02-28T15:06:13;11.50;1.00
1476;DHT22;730;48.870;12.542;2023-02-28T15:08:40;13.00;1.00
1476;DHT22;730;48.870;12.542;2023-02-28T15:11:09;14.40;1.00
1476;DHT22;730;48.870;12.542;2023-02-28T15:13:44;15.80;1.00
1476;DHT22;730;48.870;12.542;2023-02-28T15:16:33;16.90;1.00
1476;DHT22;730;48.870;12.542;2023-02-28T15:19:06;16.80;1.00
1476;DHT22;730;48.870;12.542;2023-02-28T15:21:34;16.50;1.00
1476;DHT22;730;48.870;12.542;2023-02-28T15:24:25;17.00;1.00
1476;DHT22;730;48.870;12.542;2023-02-28T15:26:55;17.40;1.00
1476;DHT22;730;48.870;12.542;2023-02-28T15:29:27;16.50;1.00
1476;DHT22;730;48.870;12.542;2023-02-28T15:32:02;15.50;1.00
1476;DHT22;730;48.870;12.542;2023-02-28T15:34:43;14.40;1.00
1476;DHT22;730;48.870;12.542;2023-02-28T15:39:58;12.60;1.00
1476;DHT22;730;48.870;12.542;2023-02-28T15:42:28;11.90;1.00
1476;DHT22;730;48.870;12.542;2023-02-28T15:44:54;11.20;1.00
1476;DHT22;730;48.870;12.542;2023-02-28T15:47:21;10.60;1.00
1476;DHT22;730;48.870;12.542;2023-02-28T15:49:52;10.20;1.00
1476;DHT22;730;48.870;12.542;2023-02-28T15:52:24;9.80;1.00
1476;DHT22;730;48.870;12.542;2023-02-28T15:54:52;9.50;1.00
1476;DHT22;730;48.870;12.542;2023-02-28T15:57:23;9.20;1.00
1476;DHT22;730;48.870;12.542;2023-02-28T15:59:56;8.90;1.00
1476;DHT22;730;48.870;12.542;2023-02-28T16:02:31;8.60;1.00
1476;DHT22;730;48.870;12.542;2023-02-28T16:07:25;8.10;1.00
1476;DHT22;730;48.870;12.542;2023-02-28T16:09:52;7.90;1.00
1476;DHT22;730;48.870;12.542;2023-02-28T16:12:19;7.70;1.00
1476;DHT22;730;48.870;12.542;2023-02-28T16:14:48;7.40;1.00
1476;DHT22;730;48.870;12.542;2023-02-28T16:17:27;7.30;1.00
1476;DHT22;730;48.870;12.542;2023-02-28T16:19:56;7.10;1.00
1476;DHT22;730;48.870;12.542;2023-02-28T16:22:22;7.00;1.00
1476;DHT22;730;48.870;12.542;2023-02-28T16:24:48;7.00;1.00
1476;DHT22;730;48.870;12.542;2023-02-28T16:27:21;6.80;1.00
1476;DHT22;730;48.870;12.542;2023-02-28T16:29:48;6.70;1.00
1476;DHT22;730;48.870;12.542;2023-02-28T16:32:15;6.60;1.00
1476;DHT22;730;48.870;12.542;2023-02-28T16:34:43;6.40;1.00
1476;DHT22;730;48.870;12.542;2023-02-28T16:37:16;6.20;1.00
1476;DHT22;730;48.870;12.542;2023-02-28T16:39:44;6.10;1.00
1476;DHT22;730;48.870;12.542;2023-02-28T16:42:22;6.10;1.00
1476;DHT22;730;48.870;12.542;2023-02-28T16:44:49;6.00;1.00
1476;DHT22;730;48.870;12.542;2023-02-28T16:47:15;5.90;1.00
1476;DHT22;730;48.870;12.542;2023-02-28T16:49:41;5.70;1.00
1476;DHT22;730;48.870;12.542;2023-02-28T16:52:09;5.70;1.00
1476;DHT22;730;48.870;12.542;2023-02-28T16:54:38;5.60;1.00
1476;DHT22;730;48.870;12.542;2023-02-28T16:57:05;5.60;1.00
1476;DHT22;730;48.870;12.542;2023-02-28T16:59:32;5.50;1.00
1476;DHT22;730;48.870;12.542;2023-02-28T17:01:58;5.40;1.00
1476;DHT22;730;48.870;12.542;2023-02-28T17:04:31;5.30;1.00
1476;DHT22;730;48.870;12.542;2023-02-28T17:07:00;5.30;1.00
1476;DHT22;730;48.870;12.542;2023-02-28T17:09:26;5.30;1.00
1476;DHT22;730;48.870;12.542;2023-02-28T17:11:55;5.30;1.00
1476;DHT22;730;48.870;12.542;2023-02-28T17:14:24;5.10;1.00
1476;DHT22;730;48.870;12.542;2023-02-28T17:16:51;5.00;1.00
1476;DHT22;730;48.870;12.542;2023-02-28T17:19:18;5.00;1.00
1476;DHT22;730;48.870;12.542;2023-02-28T17:21:45;4.90;1.00
1476;DHT22;730;48.870;12.542;2023-02-28T17:24:11;4.90;1.00
1476;DHT22;730;48.870;12.542;2023-02-28T17:26:43;4.80;1.00
1476;DHT22;730;48.870;12.542;2023-02-28T17:29:19;4.70;1.00
1476;DHT22;730;48.870;12.542;2023-02-28T17:31:46;4.70;1.00
1476;DHT22;730;48.870;12.542;2023-02-28T17:34:15;4.60;1.00
1476;DHT22;730;48.870;12.542;2023-02-28T17:36:50;4.50;1.00
1476;DHT22;730;48.870;12.542;2023-02-28T17:39:18;4.30;1.00
1476;DHT22;730;48.870;12.542;2023-02-28T17:41:52;4.30;1.00
1476;DHT22;730;48.870;12.542;2023-02-28T17:44:19;4.30;1.00
1476;DHT22;730;48.870;12.542;2023-02-28T17:46:47;4.20;1.00
1476;DHT22;730;48.870;12.542;2023-02-28T17:49:13;4.10;1.00
1476;DHT22;730;48.870;12.542;2023-02-28T17:51:39;4.20;1.00
1476;DHT22;730;48.870;12.542;2023-02-28T17:54:07;4.30;1.00
1476;DHT22;730;48.870;12.542;2023-02-28T17:56:33;4.30;1.00
1476;DHT22;730;48.870;12.542;2023-02-28T17:58:59;4.30;1.00
1476;DHT22;730;48.870;12.542;2023-02-28T18:01:26;4.30;1.00
1476;DHT22;730;48.870;12.542;2023-02-28T18:03:53;4.30;1.00
1476;DHT22;730;48.870;12.542;2023-02-28T18:06:23;4.30;1.00
1476;DHT22;730;48.870;12.542;2023-02-28T18:08:51;4.20;1.00
1476;DHT22;730;48.870;12.542;2023-02-28T18:11:18;4.30;1.00
1476;DHT22;730;48.870;12.542;2023-02-28T18:13:47;4.30;1.00
1476;DHT22;730;48.870;12.542;2023-02-28T18:16:13;4.30;1.00
1476;DHT22;730;48.870;12.542;2023-02-28T18:18:40;4.30;1.00
1476;DHT22;730;48.870;12.542;2023-02-28T18:21:08;4.20;1.00
1476;DHT22;730;48.870;12.542;2023-02-28T18:23:35;4.20;1.00
1476;DHT22;730;48.870;12.542;2023-02-28T18:26:07;4.30;1.00
1476;DHT22;730;48.870;12.542;2023-02-28T18:28:38;4.20;1.00
1476;DHT22;730;48.870;12.542;2023-02-28T18:31:09;4.30;1.00
1476;DHT22;730;48.870;12.542;2023-02-28T18:33:37;4.30;1.00
1476;DHT22;730;48.870;12.542;2023-02-28T18:36:04;4.40;1.00
1476;DHT22;730;48.870;12.542;2023-02-28T18:38:32;4.30;1.00
1476;DHT22;730;48.870;12.542;2023-02-28T18:41:00;4.30;1.00
1476;DHT22;730;48.870;12.542;2023-02-28T18:43:28;4.40;1.00
1476;DHT22;730;48.870;12.542;2023-02-28T18:45:55;4.40;1.00
1476;DHT22;730;48.870;12.542;2023-02-28T18:48:23;4.40;1.00
1476;DHT22;730;48.870;12.542;2023-02-28T18:50:49;4.40;1.00
1476;DHT22;730;48.870;12.542;2023-02-28T18:53:18;4.40;1.00
1476;DHT22;730;48.870;12.542;2023-02-28T18:55:48;4.50;1.00
1476;DHT22;730;48.870;12.542;2023-02-28T18:58:14;4.40;1.00